Terminal Aerodrome Forecast
Issued by NWS

Home | Current Version | Previous Version | Text Only | Print | Product List | Glossary On
Versions: 1 2 3 4 5 6 7 8 9 10 11 12 13 14 15 16 17 18 19 20 21
331
FTUS42 KMLB 180539
TAFSFB
TAF
KSFB 180539Z 1806/1906 18003KT P6SM SCT300
     FM180800 VRB02KT 4SM BR SCT004
     FM181000 VRB02KT 3/4SM BR BKN004
      TEMPO 1813/1815 4SM BR BKN010
     FM181500 19005KT P6SM SCT015 SCT250
     FM181800 23005KT P6SM SCT045 SCT250
     FM182200 10004KT P6SM FEW045 SCT250=

USA.gov is the U.S. government's official web portal to all federal, state and local government web resources and services.